CheckWX is a tool to help pilots better visualize weather data.  It is not intended as a substitute for an official pre-flight weather briefing.

08:06:01 UTC

KELD TAF
South Arkansas Regional at Goodwin Field Airport
El Dorado, Arkansas, USA
KELD 281122Z 2812/2912 VRB03KT P6SM -SHRA SCT002 OVC080 FM281500 19005KT P6SM -SHRA VCTS SCT004 BKN050CB FM281900 21009KT P6SM TSRA SCT019CB BKN050 FM282100 23008KT P6SM -SHRA SCT020 BKN090 FM290600 28003KT P6SM SCT030 SCT150 FM290900 VRB03KT 6SM BR BKN030

May-28@
12:00 UTC

May-28 @ 12:00 UTC

May-28@
15:00 UTC

May-28 @ 15:00 UTC

TAF KELD 281122Z 2812/2912 VRB03KT P6SM -SHRA SCT002 OVC080

Expired

Wind
  • Variable at 3 KTS
Conditions
Light Showers, Rain
Cloud Levels
  • Scattered at 200' AGL
  • Overcast at 8,000' AGL

May-28@
15:00 UTC

May-28 @ 15:00 UTC

May-28@
19:00 UTC

May-28 @ 19:00 UTC

FM281500 19005KT P6SM -SHRA VCTS SCT004 BKN050CB

Expired

Wind
  • 190° at 5 KTS
Conditions
Light Showers, Rain, Area Thunderstorm
Cloud Levels
  • Scattered at 400' AGL
  • Broken at 5,000' AGL

May-28@
19:00 UTC

May-28 @ 19:00 UTC

May-28@
21:00 UTC

May-28 @ 21:00 UTC

FM281900 21009KT P6SM TSRA SCT019CB BKN050

Expired

Wind
  • 210° at 9 KTS
Conditions
Thunderstorm, Rain
Cloud Levels
  • Scattered at 1,900' AGL
  • Broken at 5,000' AGL

May-28@
21:00 UTC

May-28 @ 21:00 UTC

May-29@
06:00 UTC

May-29 @ 06:00 UTC

FM282100 23008KT P6SM -SHRA SCT020 BKN090

Expired

Wind
  • 230° at 8 KTS
Conditions
Light Showers, Rain
Cloud Levels
  • Scattered at 2,000' AGL
  • Broken at 9,000' AGL

May-29@
06:00 UTC

May-29 @ 06:00 UTC

May-29@
09:00 UTC

May-29 @ 09:00 UTC

FM290600 28003KT P6SM SCT030 SCT150

From

From Standard forecast or significant change

Wind
  • 280° at 3 KTS
Cloud Levels
  • Scattered at 3,000' AGL
  • Scattered at 15,000' AGL

May-29@
09:00 UTC

May-29 @ 09:00 UTC

May-29@
12:00 UTC

May-29 @ 12:00 UTC

FM290900 VRB03KT 6SM BR BKN030

From

From Standard forecast or significant change

Wind
  • Variable at 3 KTS
Conditions
Mist
Cloud Levels
  • Broken at 3,000' AGL